sensor_id;sensor_type;location;lat;lon;timestamp;pressure;altitude;pressure_sealevel;temperature;humidity
4590;BME280;2307;48.448;9.216;2023-10-09T00:00:24;96055.88;;;19.26;45.83
4590;BME280;2307;48.448;9.216;2023-10-09T00:03:17;96056.97;;;19.20;45.93
4590;BME280;2307;48.448;9.216;2023-10-09T00:05:43;96052.19;;;19.22;46.43
4590;BME280;2307;48.448;9.216;2023-10-09T00:08:12;96053.00;;;19.12;46.70
4590;BME280;2307;48.448;9.216;2023-10-09T00:10:42;96049.53;;;19.01;46.64
4590;BME280;2307;48.448;9.216;2023-10-09T00:13:14;96049.81;;;19.05;46.36
4590;BME280;2307;48.448;9.216;2023-10-09T00:15:40;96044.41;;;19.10;44.95
4590;BME280;2307;48.448;9.216;2023-10-09T00:18:07;96046.28;;;19.20;45.38
4590;BME280;2307;48.448;9.216;2023-10-09T00:20:38;96040.38;;;19.23;44.92
4590;BME280;2307;48.448;9.216;2023-10-09T00:23:08;96040.59;;;19.31;44.38
4590;BME280;2307;48.448;9.216;2023-10-09T00:25:42;96043.53;;;19.35;44.84
4590;BME280;2307;48.448;9.216;2023-10-09T00:28:30;96035.25;;;19.36;45.49
4590;BME280;2307;48.448;9.216;2023-10-09T00:30:56;96030.19;;;19.25;44.76
4590;BME280;2307;48.448;9.216;2023-10-09T00:33:23;96031.22;;;19.29;45.60
4590;BME280;2307;48.448;9.216;2023-10-09T00:35:51;96029.13;;;19.21;45.31
4590;BME280;2307;48.448;9.216;2023-10-09T00:38:20;96017.09;;;19.13;46.01
4590;BME280;2307;48.448;9.216;2023-10-09T00:40:58;96015.25;;;19.08;46.69
4590;BME280;2307;48.448;9.216;2023-10-09T00:43:36;96021.69;;;18.97;46.01
4590;BME280;2307;48.448;9.216;2023-10-09T00:46:03;96021.97;;;18.96;45.92
4590;BME280;2307;48.448;9.216;2023-10-09T00:48:33;96013.16;;;18.90;45.21
4590;BME280;2307;48.448;9.216;2023-10-09T00:51:06;96017.41;;;18.96;44.75
4590;BME280;2307;48.448;9.216;2023-10-09T00:53:41;96006.19;;;18.99;44.28
4590;BME280;2307;48.448;9.216;2023-10-09T00:56:08;96000.50;;;19.06;43.90
4590;BME280;2307;48.448;9.216;2023-10-09T00:58:44;95994.56;;;19.19;43.18
4590;BME280;2307;48.448;9.216;2023-10-09T01:01:12;95992.44;;;19.16;43.00
4590;BME280;2307;48.448;9.216;2023-10-09T01:03:41;95995.91;;;19.27;42.53
4590;BME280;2307;48.448;9.216;2023-10-09T01:06:10;96003.41;;;19.25;42.65
4590;BME280;2307;48.448;9.216;2023-10-09T01:08:46;95998.03;;;19.30;42.66
4590;BME280;2307;48.448;9.216;2023-10-09T01:11:21;95992.94;;;19.28;42.74
4590;BME280;2307;48.448;9.216;2023-10-09T01:13:54;95989.47;;;19.28;42.32
4590;BME280;2307;48.448;9.216;2023-10-09T01:16:36;95990.03;;;19.25;41.85
4590;BME280;2307;48.448;9.216;2023-10-09T01:19:02;95992.69;;;19.25;41.98
4590;BME280;2307;48.448;9.216;2023-10-09T01:21:39;95980.09;;;19.30;41.60
4590;BME280;2307;48.448;9.216;2023-10-09T01:24:07;95989.97;;;19.40;41.44
4590;BME280;2307;48.448;9.216;2023-10-09T01:26:34;95979.50;;;19.43;41.70
4590;BME280;2307;48.448;9.216;2023-10-09T01:29:04;95982.97;;;19.44;41.58
4590;BME280;2307;48.448;9.216;2023-10-09T01:31:35;95980.28;;;19.49;41.09
4590;BME280;2307;48.448;9.216;2023-10-09T01:34:02;95982.84;;;19.69;40.50
4590;BME280;2307;48.448;9.216;2023-10-09T01:36:35;95985.38;;;19.89;40.15
4590;BME280;2307;48.448;9.216;2023-10-09T01:39:04;95975.97;;;19.97;40.10
4590;BME280;2307;48.448;9.216;2023-10-09T01:41:36;95975.97;;;19.92;40.56
4590;BME280;2307;48.448;9.216;2023-10-09T01:44:11;95967.22;;;19.81;41.58
4590;BME280;2307;48.448;9.216;2023-10-09T01:46:37;95979.31;;;19.79;41.85
4590;BME280;2307;48.448;9.216;2023-10-09T01:49:04;95970.63;;;19.53;42.52
4590;BME280;2307;48.448;9.216;2023-10-09T01:51:38;95968.19;;;19.56;43.29
4590;BME280;2307;48.448;9.216;2023-10-09T01:54:05;95961.84;;;19.32;43.09
4590;BME280;2307;48.448;9.216;2023-10-09T01:56:31;95956.22;;;19.29;43.38
4590;BME280;2307;48.448;9.216;2023-10-09T01:59:03;95952.19;;;19.31;42.91
4590;BME280;2307;48.448;9.216;2023-10-09T02:01:31;95953.81;;;19.32;42.56
4590;BME280;2307;48.448;9.216;2023-10-09T02:03:58;95950.84;;;19.39;43.27
4590;BME280;2307;48.448;9.216;2023-10-09T02:06:31;95953.28;;;19.40;42.71
4590;BME280;2307;48.448;9.216;2023-10-09T02:08:57;95948.66;;;19.51;42.08
4590;BME280;2307;48.448;9.216;2023-10-09T02:11:24;95956.16;;;19.49;42.25
4590;BME280;2307;48.448;9.216;2023-10-09T02:14:03;95957.25;;;19.48;42.94
4590;BME280;2307;48.448;9.216;2023-10-09T02:16:41;95948.16;;;19.44;42.97
4590;BME280;2307;48.448;9.216;2023-10-09T02:19:07;95944.41;;;19.35;43.16
4590;BME280;2307;48.448;9.216;2023-10-09T02:21:53;95945.22;;;19.35;42.88
4590;BME280;2307;48.448;9.216;2023-10-09T02:24:21;95944.97;;;19.32;42.95
4590;BME280;2307;48.448;9.216;2023-10-09T02:27:07;95949.50;;;19.36;42.76
4590;BME280;2307;48.448;9.216;2023-10-09T02:29:35;95942.53;;;19.35;43.10
4590;BME280;2307;48.448;9.216;2023-10-09T02:32:03;95940.75;;;19.21;44.04
4590;BME280;2307;48.448;9.216;2023-10-09T02:34:39;95942.41;;;19.12;44.45
4590;BME280;2307;48.448;9.216;2023-10-09T02:37:05;95937.06;;;19.06;44.30
4590;BME280;2307;48.448;9.216;2023-10-09T02:39:36;95947.22;;;19.09;44.33
4590;BME280;2307;48.448;9.216;2023-10-09T02:42:08;95942.41;;;19.12;44.35
4590;BME280;2307;48.448;9.216;2023-10-09T02:44:46;95934.34;;;19.22;43.60
4590;BME280;2307;48.448;9.216;2023-10-09T02:47:15;95932.16;;;19.24;43.55
4590;BME280;2307;48.448;9.216;2023-10-09T02:49:45;95935.91;;;19.23;43.86
4590;BME280;2307;48.448;9.216;2023-10-09T02:52:13;95928.97;;;19.22;44.67
4590;BME280;2307;48.448;9.216;2023-10-09T02:54:43;95928.16;;;19.21;44.45
4590;BME280;2307;48.448;9.216;2023-10-09T02:57:12;95932.72;;;19.21;43.99
4590;BME280;2307;48.448;9.216;2023-10-09T02:59:48;95930.84;;;19.16;44.44
4590;BME280;2307;48.448;9.216;2023-10-09T03:02:16;95929.50;;;19.19;44.44
4590;BME280;2307;48.448;9.216;2023-10-09T03:04:43;95926.81;;;19.19;44.58
4590;BME280;2307;48.448;9.216;2023-10-09T03:07:09;95930.56;;;19.23;44.00
4590;BME280;2307;48.448;9.216;2023-10-09T03:09:38;95928.44;;;19.25;43.80
4590;BME280;2307;48.448;9.216;2023-10-09T03:12:06;95928.34;;;19.35;43.48
4590;BME280;2307;48.448;9.216;2023-10-09T03:14:35;95924.03;;;19.39;43.86
4590;BME280;2307;48.448;9.216;2023-10-09T03:17:05;95931.75;;;19.50;43.71
4590;BME280;2307;48.448;9.216;2023-10-09T03:19:32;95936.66;;;19.43;44.43
4590;BME280;2307;48.448;9.216;2023-10-09T03:22:02;95925.09;;;19.38;44.32
4590;BME280;2307;48.448;9.216;2023-10-09T03:24:29;95934.00;;;19.33;44.61
4590;BME280;2307;48.448;9.216;2023-10-09T03:26:56;95939.88;;;19.35;43.95
4590;BME280;2307;48.448;9.216;2023-10-09T03:29:24;95932.94;;;19.34;44.24
4590;BME280;2307;48.448;9.216;2023-10-09T03:31:52;95933.44;;;19.31;44.35
4590;BME280;2307;48.448;9.216;2023-10-09T03:34:22;95923.53;;;19.32;44.00
4590;BME280;2307;48.448;9.216;2023-10-09T03:36:49;95923.78;;;19.35;43.87
4590;BME280;2307;48.448;9.216;2023-10-09T03:39:24;95927.88;;;19.28;45.04
4590;BME280;2307;48.448;9.216;2023-10-09T03:41:59;95933.22;;;19.28;44.92
4590;BME280;2307;48.448;9.216;2023-10-09T03:44:29;95926.28;;;19.22;45.56
4590;BME280;2307;48.448;9.216;2023-10-09T03:46:58;95924.94;;;19.19;45.90
4590;BME280;2307;48.448;9.216;2023-10-09T03:49:26;95931.41;;;19.13;46.19
4590;BME280;2307;48.448;9.216;2023-10-09T03:51:54;95925.53;;;19.06;46.67
4590;BME280;2307;48.448;9.216;2023-10-09T03:54:20;95929.59;;;18.93;46.98
4590;BME280;2307;48.448;9.216;2023-10-09T03:56:48;95929.13;;;18.86;47.33
4590;BME280;2307;48.448;9.216;2023-10-09T03:59:15;95930.72;;;18.92;47.36
4590;BME280;2307;48.448;9.216;2023-10-09T04:01:42;95920.78;;;18.98;48.49
4590;BME280;2307;48.448;9.216;2023-10-09T04:04:09;95920.00;;;18.87;47.46
4590;BME280;2307;48.448;9.216;2023-10-09T04:06:40;95921.09;;;18.81;47.97
4590;BME280;2307;48.448;9.216;2023-10-09T04:09:07;95920.06;;;18.77;48.31
4590;BME280;2307;48.448;9.216;2023-10-09T04:11:53;95914.44;;;18.74;48.03
4590;BME280;2307;48.448;9.216;2023-10-09T04:14:38;95913.38;;;18.70;48.37
4590;BME280;2307;48.448;9.216;2023-10-09T04:17:16;95906.69;;;18.77;48.27
4590;BME280;2307;48.448;9.216;2023-10-09T04:19:56;95908.81;;;18.80;47.37
4590;BME280;2307;48.448;9.216;2023-10-09T04:22:38;95909.84;;;18.89;47.45
4590;BME280;2307;48.448;9.216;2023-10-09T04:25:08;95905.78;;;18.97;46.67
4590;BME280;2307;48.448;9.216;2023-10-09T04:27:39;95901.72;;;19.04;46.39
4590;BME280;2307;48.448;9.216;2023-10-09T04:30:06;95910.03;;;19.03;47.67
4590;BME280;2307;48.448;9.216;2023-10-09T04:32:37;95914.09;;;18.90;47.96
4590;BME280;2307;48.448;9.216;2023-10-09T04:35:05;95908.22;;;18.88;48.43
4590;BME280;2307;48.448;9.216;2023-10-09T04:37:50;95916.28;;;18.78;48.48
4590;BME280;2307;48.448;9.216;2023-10-09T04:40:28;95910.16;;;18.73;50.67
4590;BME280;2307;48.448;9.216;2023-10-09T04:43:13;95921.69;;;18.63;50.75
4590;BME280;2307;48.448;9.216;2023-10-09T04:45:45;95919.59;;;18.45;50.19
4590;BME280;2307;48.448;9.216;2023-10-09T04:48:29;95925.47;;;18.42;50.89
4590;BME280;2307;48.448;9.216;2023-10-09T04:51:02;95916.63;;;18.36;51.45
4590;BME280;2307;48.448;9.216;2023-10-09T04:54:00;95919.06;;;18.33;51.71
4590;BME280;2307;48.448;9.216;2023-10-09T04:56:38;95920.13;;;18.27;51.83
4590;BME280;2307;48.448;9.216;2023-10-09T04:59:17;95923.34;;;18.24;51.74
4590;BME280;2307;48.448;9.216;2023-10-09T05:01:43;95925.75;;;18.30;49.58
4590;BME280;2307;48.448;9.216;2023-10-09T05:04:22;95921.72;;;18.43;49.24
4590;BME280;2307;48.448;9.216;2023-10-09T05:07:04;95923.59;;;18.47;48.91
4590;BME280;2307;48.448;9.216;2023-10-09T05:09:49;95918.25;;;18.58;48.95
4590;BME280;2307;48.448;9.216;2023-10-09T05:12:21;95929.16;;;18.71;48.97
4590;BME280;2307;48.448;9.216;2023-10-09T05:14:52;95928.38;;;18.66;48.79
4590;BME280;2307;48.448;9.216;2023-10-09T05:17:33;95927.03;;;18.68;49.04
4590;BME280;2307;48.448;9.216;2023-10-09T05:20:01;95932.94;;;18.70;49.84
4590;BME280;2307;48.448;9.216;2023-10-09T05:22:42;95928.59;;;18.79;47.73
4590;BME280;2307;48.448;9.216;2023-10-09T05:25:23;95931.81;;;18.81;47.46
4590;BME280;2307;48.448;9.216;2023-10-09T05:28:04;95930.72;;;18.87;47.13
4590;BME280;2307;48.448;9.216;2023-10-09T05:30:50;95933.09;;;18.99;46.89
4590;BME280;2307;48.448;9.216;2023-10-09T05:33:27;95938.41;;;19.04;46.48
4590;BME280;2307;48.448;9.216;2023-10-09T05:35:55;95935.97;;;19.13;47.08
4590;BME280;2307;48.448;9.216;2023-10-09T05:38:39;95931.16;;;19.09;46.58
4590;BME280;2307;48.448;9.216;2023-10-09T05:41:12;95931.66;;;19.17;45.78
4590;BME280;2307;48.448;9.216;2023-10-09T05:43:56;95944.16;;;19.31;45.20
4590;BME280;2307;48.448;9.216;2023-10-09T05:46:40;95951.63;;;19.39;45.06
4590;BME280;2307;48.448;9.216;2023-10-09T05:49:27;95954.31;;;19.44;44.89
4590;BME280;2307;48.448;9.216;2023-10-09T05:52:10;95957.53;;;19.46;44.98
4590;BME280;2307;48.448;9.216;2023-10-09T05:54:51;95958.34;;;19.47;44.80
4590;BME280;2307;48.448;9.216;2023-10-09T05:57:42;95956.72;;;19.41;45.09
4590;BME280;2307;48.448;9.216;2023-10-09T06:00:28;95957.84;;;19.40;45.37
4590;BME280;2307;48.448;9.216;2023-10-09T06:03:12;95955.69;;;19.32;45.33
4590;BME280;2307;48.448;9.216;2023-10-09T06:05:51;95962.63;;;19.43;44.72
4590;BME280;2307;48.448;9.216;2023-10-09T06:08:31;95956.66;;;19.56;44.31
4590;BME280;2307;48.448;9.216;2023-10-09T06:11:29;95958.50;;;19.60;44.30
4590;BME280;2307;48.448;9.216;2023-10-09T06:14:05;95968.34;;;19.75;43.69
4590;BME280;2307;48.448;9.216;2023-10-09T06:16:38;95969.41;;;19.74;43.58
4590;BME280;2307;48.448;9.216;2023-10-09T06:19:08;95975.72;;;19.88;43.54
4590;BME280;2307;48.448;9.216;2023-10-09T06:21:37;95975.41;;;19.95;43.34
4590;BME280;2307;48.448;9.216;2023-10-09T06:24:26;95983.25;;;19.91;43.29
4590;BME280;2307;48.448;9.216;2023-10-09T06:26:58;95985.06;;;20.01;42.67
4590;BME280;2307;48.448;9.216;2023-10-09T06:29:50;95990.19;;;19.97;42.87
4590;BME280;2307;48.448;9.216;2023-10-09T06:32:16;95990.69;;;19.99;42.90
4590;BME280;2307;48.448;9.216;2023-10-09T06:34:59;95995.44;;;20.07;42.21
4590;BME280;2307;48.448;9.216;2023-10-09T06:37:41;95988.69;;;20.15;42.20
4590;BME280;2307;48.448;9.216;2023-10-09T06:40:27;95992.41;;;20.19;42.29
4590;BME280;2307;48.448;9.216;2023-10-09T06:43:13;95988.88;;;20.24;42.43
4590;BME280;2307;48.448;9.216;2023-10-09T06:45:43;95997.47;;;20.26;42.27
4590;BME280;2307;48.448;9.216;2023-10-09T06:48:10;95998.53;;;20.30;41.94
4590;BME280;2307;48.448;9.216;2023-10-09T06:50:50;95996.84;;;20.39;42.02
4590;BME280;2307;48.448;9.216;2023-10-09T06:53:29;96000.38;;;20.34;42.09
4590;BME280;2307;48.448;9.216;2023-10-09T06:56:14;95997.88;;;20.43;41.59
4590;BME280;2307;48.448;9.216;2023-10-09T06:58:51;96000.78;;;20.51;41.53
4590;BME280;2307;48.448;9.216;2023-10-09T07:01:21;95990.31;;;20.50;41.92
4590;BME280;2307;48.448;9.216;2023-10-09T07:04:05;95995.06;;;20.58;41.34
4590;BME280;2307;48.448;9.216;2023-10-09T07:06:43;95991.53;;;20.62;41.26
4590;BME280;2307;48.448;9.216;2023-10-09T07:09:16;95995.53;;;20.65;41.41
4590;BME280;2307;48.448;9.216;2023-10-09T07:11:44;95989.56;;;20.73;41.13
4590;BME280;2307;48.448;9.216;2023-10-09T07:14:25;95993.72;;;20.84;41.19
4590;BME280;2307;48.448;9.216;2023-10-09T07:17:10;95993.69;;;20.89;41.28
4590;BME280;2307;48.448;9.216;2023-10-09T07:19:48;95998.19;;;20.94;41.29
4590;BME280;2307;48.448;9.216;2023-10-09T07:22:40;95997.38;;;20.93;41.20
4590;BME280;2307;48.448;9.216;2023-10-09T07:25:22;96004.94;;;20.91;41.31
4590;BME280;2307;48.448;9.216;2023-10-09T07:28:06;96006.44;;;21.02;41.08
4590;BME280;2307;48.448;9.216;2023-10-09T07:30:43;96003.69;;;21.07;41.02
4590;BME280;2307;48.448;9.216;2023-10-09T07:33:12;96006.53;;;21.21;41.02
4590;BME280;2307;48.448;9.216;2023-10-09T07:35:56;96010.63;;;21.13;41.14
4590;BME280;2307;48.448;9.216;2023-10-09T07:38:23;96012.66;;;21.22;41.09
4590;BME280;2307;48.448;9.216;2023-10-09T07:40:53;96008.97;;;21.17;41.11
4590;BME280;2307;48.448;9.216;2023-10-09T07:43:21;95999.78;;;21.24;40.81
4590;BME280;2307;48.448;9.216;2023-10-09T07:45:51;96004.50;;;21.32;41.30
4590;BME280;2307;48.448;9.216;2023-10-09T07:48:48;95998.19;;;21.41;40.82
4590;BME280;2307;48.448;9.216;2023-10-09T07:51:18;96009.97;;;21.45;40.60
4590;BME280;2307;48.448;9.216;2023-10-09T07:53:48;96012.59;;;21.50;40.30
4590;BME280;2307;48.448;9.216;2023-10-09T07:56:22;96017.13;;;21.55;40.53
4590;BME280;2307;48.448;9.216;2023-10-09T07:58:48;96007.44;;;21.54;40.41
4590;BME280;2307;48.448;9.216;2023-10-09T08:01:15;96014.88;;;21.62;40.47
4590;BME280;2307;48.448;9.216;2023-10-09T08:03:50;96016.41;;;21.68;40.75
4590;BME280;2307;48.448;9.216;2023-10-09T08:06:26;96016.56;;;21.77;40.46
4590;BME280;2307;48.448;9.216;2023-10-09T08:09:10;96020.53;;;21.79;40.37
4590;BME280;2307;48.448;9.216;2023-10-09T08:11:53;96016.78;;;21.80;40.57
4590;BME280;2307;48.448;9.216;2023-10-09T08:14:36;96020.72;;;21.88;40.55
4590;BME280;2307;48.448;9.216;2023-10-09T08:17:10;96019.06;;;21.92;40.35
4590;BME280;2307;48.448;9.216;2023-10-09T08:19:45;96019.28;;;21.95;40.27
4590;BME280;2307;48.448;9.216;2023-10-09T08:22:20;96023.94;;;22.08;40.67
4590;BME280;2307;48.448;9.216;2023-10-09T08:25:00;96023.84;;;22.13;40.62
4590;BME280;2307;48.448;9.216;2023-10-09T08:27:28;96025.09;;;22.02;40.12
4590;BME280;2307;48.448;9.216;2023-10-09T08:30:11;96023.44;;;22.06;40.50
4590;BME280;2307;48.448;9.216;2023-10-09T08:32:53;96020.28;;;21.99;40.27
4590;BME280;2307;48.448;9.216;2023-10-09T08:35:28;96016.94;;;22.07;39.85
4590;BME280;2307;48.448;9.216;2023-10-09T08:37:58;96028.72;;;22.11;39.62
4590;BME280;2307;48.448;9.216;2023-10-09T08:40:32;96023.72;;;22.05;39.88
4590;BME280;2307;48.448;9.216;2023-10-09T08:43:06;96022.03;;;22.09;39.60
4590;BME280;2307;48.448;9.216;2023-10-09T08:45:35;96025.81;;;22.08;40.20
4590;BME280;2307;48.448;9.216;2023-10-09T08:48:01;96013.66;;;22.10;39.83
4590;BME280;2307;48.448;9.216;2023-10-09T08:50:31;96020.19;;;22.23;39.95
4590;BME280;2307;48.448;9.216;2023-10-09T08:52:59;96012.28;;;22.32;39.64
4590;BME280;2307;48.448;9.216;2023-10-09T08:55:26;96021.09;;;22.18;39.78
4590;BME280;2307;48.448;9.216;2023-10-09T08:57:52;96015.25;;;22.30;40.06
4590;BME280;2307;48.448;9.216;2023-10-09T09:00:21;96005.28;;;22.31;40.30
4590;BME280;2307;48.448;9.216;2023-10-09T09:02:49;96004.41;;;22.35;39.83
4590;BME280;2307;48.448;9.216;2023-10-09T09:05:18;96006.13;;;22.45;39.58
4590;BME280;2307;48.448;9.216;2023-10-09T09:07:46;96009.16;;;22.57;39.65
4590;BME280;2307;48.448;9.216;2023-10-09T09:10:13;96005.22;;;22.68;39.21
4590;BME280;2307;48.448;9.216;2023-10-09T09:12:43;96001.06;;;22.75;39.14
4590;BME280;2307;48.448;9.216;2023-10-09T09:15:13;96006.34;;;22.67;39.04
4590;BME280;2307;48.448;9.216;2023-10-09T09:17:45;96026.16;;;22.71;38.90
4590;BME280;2307;48.448;9.216;2023-10-09T09:20:19;96010.34;;;22.51;38.26
4590;BME280;2307;48.448;9.216;2023-10-09T09:22:52;96012.22;;;22.50;38.52
4590;BME280;2307;48.448;9.216;2023-10-09T09:25:21;96012.94;;;22.56;39.11
4590;BME280;2307;48.448;9.216;2023-10-09T09:27:49;96009.66;;;22.59;38.31
4590;BME280;2307;48.448;9.216;2023-10-09T09:30:22;95999.91;;;22.63;37.89
4590;BME280;2307;48.448;9.216;2023-10-09T09:32:50;96013.28;;;22.68;37.99
4590;BME280;2307;48.448;9.216;2023-10-09T09:35:37;96021.91;;;22.84;38.30
4590;BME280;2307;48.448;9.216;2023-10-09T09:38:05;96021.63;;;22.85;37.95
4590;BME280;2307;48.448;9.216;2023-10-09T09:40:32;96022.22;;;22.82;37.69
4590;BME280;2307;48.448;9.216;2023-10-09T09:43:06;96038.59;;;22.99;37.64
4590;BME280;2307;48.448;9.216;2023-10-09T09:45:42;96035.41;;;22.97;38.22
4590;BME280;2307;48.448;9.216;2023-10-09T09:48:14;96028.94;;;22.98;36.98
4590;BME280;2307;48.448;9.216;2023-10-09T09:50:41;96037.22;;;23.15;37.62
4590;BME280;2307;48.448;9.216;2023-10-09T09:53:12;96038.34;;;23.14;37.51
4590;BME280;2307;48.448;9.216;2023-10-09T09:55:42;96046.72;;;23.26;37.43
4590;BME280;2307;48.448;9.216;2023-10-09T09:58:17;96047.22;;;23.15;37.21
4590;BME280;2307;48.448;9.216;2023-10-09T10:00:45;96047.78;;;23.12;37.81
4590;BME280;2307;48.448;9.216;2023-10-09T10:03:18;96050.34;;;22.90;37.86
4590;BME280;2307;48.448;9.216;2023-10-09T10:05:45;96050.56;;;22.93;38.45
4590;BME280;2307;48.448;9.216;2023-10-09T10:08:15;96057.66;;;22.89;38.71
4590;BME280;2307;48.448;9.216;2023-10-09T10:10:45;96055.28;;;23.01;39.63
4590;BME280;2307;48.448;9.216;2023-10-09T10:13:17;96054.16;;;22.89;39.15
4590;BME280;2307;48.448;9.216;2023-10-09T10:15:59;96046.28;;;22.92;39.81
4590;BME280;2307;48.448;9.216;2023-10-09T10:18:52;96046.56;;;22.91;39.13
4590;BME280;2307;48.448;9.216;2023-10-09T10:21:18;96052.16;;;22.94;40.05
4590;BME280;2307;48.448;9.216;2023-10-09T10:23:59;96049.38;;;22.99;39.59
4590;BME280;2307;48.448;9.216;2023-10-09T10:26:38;96041.63;;;23.11;39.83
4590;BME280;2307;48.448;9.216;2023-10-09T10:29:15;96043.53;;;23.11;39.49
4590;BME280;2307;48.448;9.216;2023-10-09T10:31:51;96037.59;;;23.09;40.00
4590;BME280;2307;48.448;9.216;2023-10-09T10:34:19;96053.72;;;23.27;39.25
4590;BME280;2307;48.448;9.216;2023-10-09T10:36:48;96046.53;;;23.37;39.83
4590;BME280;2307;48.448;9.216;2023-10-09T10:39:19;96041.53;;;23.44;39.73
4590;BME280;2307;48.448;9.216;2023-10-09T10:42:04;96038.75;;;23.49;39.89
4590;BME280;2307;48.448;9.216;2023-10-09T10:44:34;96041.88;;;23.56;39.54
4590;BME280;2307;48.448;9.216;2023-10-09T10:47:02;96036.47;;;23.56;39.24
4590;BME280;2307;48.448;9.216;2023-10-09T10:49:30;96047.47;;;23.46;39.71
4590;BME280;2307;48.448;9.216;2023-10-09T10:52:02;96039.25;;;23.51;40.00
4590;BME280;2307;48.448;9.216;2023-10-09T10:54:42;96037.69;;;23.50;39.96
4590;BME280;2307;48.448;9.216;2023-10-09T10:57:17;96038.84;;;23.57;39.74
4590;BME280;2307;48.448;9.216;2023-10-09T10:59:57;96034.78;;;23.46;39.02
4590;BME280;2307;48.448;9.216;2023-10-09T11:02:43;96037.06;;;23.53;38.78
4590;BME280;2307;48.448;9.216;2023-10-09T11:05:08;96034.34;;;23.25;39.70
4590;BME280;2307;48.448;9.216;2023-10-09T11:07:48;96022.19;;;23.42;39.28
4590;BME280;2307;48.448;9.216;2023-10-09T11:10:22;96022.25;;;23.64;39.45
4590;BME280;2307;48.448;9.216;2023-10-09T11:12:54;96023.47;;;23.58;39.54
4590;BME280;2307;48.448;9.216;2023-10-09T11:15:37;96020.34;;;23.78;39.07
4590;BME280;2307;48.448;9.216;2023-10-09T11:18:09;96026.84;;;23.77;39.08
4590;BME280;2307;48.448;9.216;2023-10-09T11:20:43;96025.97;;;24.04;38.21
4590;BME280;2307;48.448;9.216;2023-10-09T11:23:21;96026.69;;;23.96;37.97
4590;BME280;2307;48.448;9.216;2023-10-09T11:25:56;96023.81;;;23.92;38.39
4590;BME280;2307;48.448;9.216;2023-10-09T11:28:43;96034.19;;;23.99;38.24
4590;BME280;2307;48.448;9.216;2023-10-09T11:31:14;96028.81;;;23.85;39.01
4590;BME280;2307;48.448;9.216;2023-10-09T11:33:44;96037.66;;;23.63;37.76
4590;BME280;2307;48.448;9.216;2023-10-09T11:36:10;96038.03;;;23.57;37.62
4590;BME280;2307;48.448;9.216;2023-10-09T11:38:36;96038.84;;;23.57;37.82
4590;BME280;2307;48.448;9.216;2023-10-09T11:41:12;96031.69;;;23.53;37.84
4590;BME280;2307;48.448;9.216;2023-10-09T11:43:50;96027.88;;;23.54;37.88
4590;BME280;2307;48.448;9.216;2023-10-09T11:46:17;96025.38;;;23.57;37.98
4590;BME280;2307;48.448;9.216;2023-10-09T11:49:04;96038.84;;;23.44;38.80
4590;BME280;2307;48.448;9.216;2023-10-09T11:51:45;96038.38;;;23.42;38.42
4590;BME280;2307;48.448;9.216;2023-10-09T11:54:32;96035.03;;;23.31;38.57
4590;BME280;2307;48.448;9.216;2023-10-09T11:56:59;96033.44;;;23.30;39.22
4590;BME280;2307;48.448;9.216;2023-10-09T11:59:26;96026.25;;;23.39;38.78
4590;BME280;2307;48.448;9.216;2023-10-09T12:01:53;96019.09;;;23.48;38.91
4590;BME280;2307;48.448;9.216;2023-10-09T12:04:26;96013.88;;;23.65;38.80
4590;BME280;2307;48.448;9.216;2023-10-09T12:06:55;96017.66;;;23.78;39.20
4590;BME280;2307;48.448;9.216;2023-10-09T12:09:31;96014.16;;;23.77;39.23
4590;BME280;2307;48.448;9.216;2023-10-09T12:12:01;96004.16;;;23.78;39.39
4590;BME280;2307;48.448;9.216;2023-10-09T12:14:28;96006.25;;;23.81;39.52
4590;BME280;2307;48.448;9.216;2023-10-09T12:16:58;96005.66;;;23.84;39.05
4590;BME280;2307;48.448;9.216;2023-10-09T12:19:30;95994.28;;;23.60;39.17
4590;BME280;2307;48.448;9.216;2023-10-09T12:21:57;95989.22;;;23.45;39.31
4590;BME280;2307;48.448;9.216;2023-10-09T12:24:25;95997.44;;;23.40;40.02
4590;BME280;2307;48.448;9.216;2023-10-09T12:26:54;95998.50;;;23.39;39.91
4590;BME280;2307;48.448;9.216;2023-10-09T12:29:22;95989.50;;;23.29;39.63
4590;BME280;2307;48.448;9.216;2023-10-09T12:31:49;95993.69;;;23.36;39.13
4590;BME280;2307;48.448;9.216;2023-10-09T12:34:23;95987.72;;;22.98;39.92
4590;BME280;2307;48.448;9.216;2023-10-09T12:36:51;95975.13;;;22.93;40.03
4590;BME280;2307;48.448;9.216;2023-10-09T12:39:18;95963.56;;;22.79;42.47
4590;BME280;2307;48.448;9.216;2023-10-09T12:41:44;95970.81;;;22.79;42.35
4590;BME280;2307;48.448;9.216;2023-10-09T12:44:11;95972.94;;;22.95;41.69
4590;BME280;2307;48.448;9.216;2023-10-09T12:46:41;95968.25;;;22.87;41.41
4590;BME280;2307;48.448;9.216;2023-10-09T12:49:17;95959.66;;;22.85;41.28
4590;BME280;2307;48.448;9.216;2023-10-09T12:51:43;95962.78;;;22.92;40.07
4590;BME280;2307;48.448;9.216;2023-10-09T12:54:09;95954.19;;;23.17;39.34
4590;BME280;2307;48.448;9.216;2023-10-09T12:56:39;95945.59;;;23.43;39.94
4590;BME280;2307;48.448;9.216;2023-10-09T12:59:06;95946.34;;;23.57;39.69
4590;BME280;2307;48.448;9.216;2023-10-09T13:01:41;95941.75;;;23.71;38.63
4590;BME280;2307;48.448;9.216;2023-10-09T13:04:10;95943.03;;;23.96;38.38
4590;BME280;2307;48.448;9.216;2023-10-09T13:06:39;95930.22;;;24.01;38.32
4590;BME280;2307;48.448;9.216;2023-10-09T13:09:09;95924.22;;;24.04;38.01
4590;BME280;2307;48.448;9.216;2023-10-09T13:11:36;95921.53;;;24.26;37.99
4590;BME280;2307;48.448;9.216;2023-10-09T13:14:03;95917.66;;;24.41;36.92
4590;BME280;2307;48.448;9.216;2023-10-09T13:16:43;95921.44;;;24.71;37.09
4590;BME280;2307;48.448;9.216;2023-10-09T13:19:12;95917.47;;;24.99;35.74
4590;BME280;2307;48.448;9.216;2023-10-09T13:21:39;95919.13;;;25.17;35.85
4590;BME280;2307;48.448;9.216;2023-10-09T13:24:06;95924.84;;;25.16;34.96
4590;BME280;2307;48.448;9.216;2023-10-09T13:26:37;95930.22;;;25.07;35.32
4590;BME280;2307;48.448;9.216;2023-10-09T13:29:04;95925.00;;;25.19;34.59
4590;BME280;2307;48.448;9.216;2023-10-09T13:31:34;95926.16;;;25.35;34.78
4590;BME280;2307;48.448;9.216;2023-10-09T13:34:04;95945.47;;;25.51;33.55
4590;BME280;2307;48.448;9.216;2023-10-09T13:36:35;95940.84;;;25.52;31.95
4590;BME280;2307;48.448;9.216;2023-10-09T13:39:02;95935.78;;;25.76;32.52
4590;BME280;2307;48.448;9.216;2023-10-09T13:41:45;95932.59;;;25.74;32.23
4590;BME280;2307;48.448;9.216;2023-10-09T13:44:11;95936.72;;;25.63;33.12
4590;BME280;2307;48.448;9.216;2023-10-09T13:46:38;95942.94;;;25.55;33.64
4590;BME280;2307;48.448;9.216;2023-10-09T13:49:07;95939.13;;;25.64;33.96
4590;BME280;2307;48.448;9.216;2023-10-09T13:51:37;95937.84;;;25.70;32.77
4590;BME280;2307;48.448;9.216;2023-10-09T13:54:08;95938.66;;;25.88;32.56